createdAt,value
2022-10-14T00:01:30.684Z,37.00
2022-10-14T00:04:01.603Z,38.13
2022-10-14T00:06:33.031Z,37.40
2022-10-14T00:09:03.872Z,38.37
2022-10-14T00:11:35.379Z,36.37
2022-10-14T00:14:06.084Z,37.30
2022-10-14T00:16:36.856Z,36.60
2022-10-14T00:19:08.166Z,37.50
2022-10-14T00:21:38.955Z,38.23
2022-10-14T00:24:08.763Z,35.53
2022-10-14T00:26:39.311Z,37.50
2022-10-14T00:29:14.947Z,35.83
2022-10-14T00:31:43.708Z,35.00
2022-10-14T00:34:16.230Z,35.70
2022-10-14T00:36:45.312Z,36.50
2022-10-14T00:39:14.113Z,36.57
2022-10-14T00:41:43.291Z,35.70
2022-10-14T00:44:45.024Z,37.20
2022-10-14T00:47:14.283Z,36.87
2022-10-14T00:49:46.083Z,36.37
2022-10-14T00:52:18.861Z,35.17
2022-10-14T00:54:51.381Z,36.60
2022-10-14T00:57:20.973Z,35.07
2022-10-14T00:59:50.274Z,36.37
2022-10-14T01:02:18.973Z,38.17
2022-10-14T01:04:49.053Z,35.37
2022-10-14T01:07:28.109Z,36.40
2022-10-14T01:10:04.150Z,36.20
2022-10-14T01:12:45.542Z,35.30
2022-10-14T01:15:23.482Z,36.40
2022-10-14T01:18:03.681Z,36.30
2022-10-14T01:20:57.937Z,37.83
2022-10-14T01:24:05.343Z,38.00
2022-10-14T01:26:52.778Z,38.17
2022-10-14T01:29:42.668Z,37.00
2022-10-14T01:32:16.117Z,37.20
2022-10-14T01:34:52.178Z,37.60
2022-10-14T01:37:26.253Z,38.20
2022-10-14T01:39:59.993Z,39.40
2022-10-14T01:42:32.834Z,36.67
2022-10-14T01:45:08.940Z,38.10
2022-10-14T01:47:39.939Z,38.77
2022-10-14T01:50:13.245Z,38.47
2022-10-14T01:52:46.293Z,36.77
2022-10-14T01:55:19.675Z,36.33
2022-10-14T01:57:51.364Z,39.30
2022-10-14T02:00:21.614Z,38.80
2022-10-14T02:02:50.340Z,39.07
2022-10-14T02:05:23.427Z,39.77
2022-10-14T02:07:57.139Z,40.23
2022-10-14T02:10:39.501Z,40.90
2022-10-14T02:13:20.826Z,39.00
2022-10-14T02:16:07.780Z,39.60
2022-10-14T02:18:42.153Z,37.50
2022-10-14T02:21:19.926Z,36.60
2022-10-14T02:23:53.480Z,35.33
2022-10-14T02:26:23.953Z,39.93
2022-10-14T02:28:54.424Z,36.97
2022-10-14T02:31:26.295Z,37.70
2022-10-14T02:33:59.278Z,35.37
2022-10-14T02:36:29.785Z,42.47
2022-10-14T02:39:01.043Z,47.70
2022-10-14T02:41:35.022Z,41.37
2022-10-14T02:44:03.810Z,42.40
2022-10-14T02:46:34.226Z,39.20
2022-10-14T02:49:03.228Z,42.03
2022-10-14T02:51:31.857Z,38.60
2022-10-14T02:54:01.801Z,39.50
2022-10-14T02:56:30.487Z,38.87
2022-10-14T02:58:59.098Z,37.30
2022-10-14T03:01:27.898Z,37.77
2022-10-14T03:03:58.053Z,38.47
2022-10-14T03:06:26.809Z,38.13
2022-10-14T03:08:55.452Z,37.43
2022-10-14T03:11:24.048Z,38.70
2022-10-14T03:13:52.623Z,37.97
2022-10-14T03:16:21.259Z,36.37
2022-10-14T03:18:49.860Z,36.93
2022-10-14T03:21:20.187Z,39.60
2022-10-14T03:23:48.804Z,36.80
2022-10-14T03:26:17.420Z,39.17
2022-10-14T03:28:46.104Z,41.40
2022-10-14T03:31:14.816Z,38.07
2022-10-14T03:33:43.447Z,39.50
2022-10-14T03:36:12.162Z,36.73
2022-10-14T03:38:42.413Z,39.47
2022-10-14T03:41:11.195Z,39.13
2022-10-14T03:43:39.842Z,40.03
2022-10-14T03:46:08.486Z,37.93
2022-10-14T03:48:37.098Z,39.30
2022-10-14T03:51:05.802Z,40.17
2022-10-14T03:53:34.484Z,39.40
2022-10-14T03:56:04.555Z,36.73
2022-10-14T03:58:33.262Z,37.87
2022-10-14T04:01:01.876Z,40.13
2022-10-14T04:03:30.585Z,37.10
2022-10-14T04:05:59.213Z,37.20
2022-10-14T04:08:27.919Z,38.77
2022-10-14T04:10:57.122Z,40.40
2022-10-14T04:13:27.289Z,38.20
2022-10-14T04:15:55.949Z,38.40
2022-10-14T04:18:24.627Z,40.67
2022-10-14T04:20:54.002Z,40.80
2022-10-14T04:23:22.637Z,39.33
2022-10-14T04:25:51.261Z,36.57
2022-10-14T04:28:19.980Z,37.20
2022-10-14T04:30:50.072Z,38.37
2022-10-14T04:33:18.723Z,39.50
2022-10-14T04:35:47.346Z,41.33
2022-10-14T04:38:16.062Z,40.37
2022-10-14T04:40:46.879Z,41.90
2022-10-14T04:43:15.547Z,40.23
2022-10-14T04:45:44.206Z,41.53
2022-10-14T04:48:14.242Z,42.63
2022-10-14T04:50:43.130Z,43.43
2022-10-14T04:53:13.678Z,41.50
2022-10-14T04:55:42.494Z,44.60
2022-10-14T04:58:11.186Z,42.77
2022-10-14T05:00:39.905Z,38.67
2022-10-14T05:03:08.740Z,36.63
2022-10-14T05:05:38.944Z,37.73
2022-10-14T05:08:08.182Z,38.90
2022-10-14T05:10:36.845Z,38.30
2022-10-14T05:13:05.878Z,37.37
2022-10-14T05:15:40.564Z,39.30
2022-10-14T05:18:11.621Z,38.90
2022-10-14T05:20:41.653Z,37.70
2022-10-14T05:23:10.303Z,37.53
2022-10-14T05:25:38.984Z,38.73
2022-10-14T05:28:07.569Z,40.10
2022-10-14T05:30:36.163Z,36.77
2022-10-14T05:33:05.065Z,38.80
2022-10-14T05:35:57.617Z,36.47
2022-10-14T05:38:23.630Z,36.00
2022-10-14T05:40:55.475Z,36.27
2022-10-14T05:43:30.946Z,38.60
2022-10-14T05:46:01.374Z,39.87
2022-10-14T05:48:30.778Z,37.27
2022-10-14T05:51:02.788Z,35.47
2022-10-14T05:53:33.268Z,38.90
2022-10-14T05:56:05.895Z,36.50
2022-10-14T05:58:34.768Z,37.93
2022-10-14T06:01:04.017Z,35.80
2022-10-14T06:03:32.852Z,37.10
2022-10-14T06:06:02.915Z,36.57
2022-10-14T06:08:33.324Z,34.20
2022-10-14T06:11:06.674Z,35.93
2022-10-14T06:13:37.040Z,37.13
2022-10-14T06:16:08.045Z,35.83
2022-10-14T06:18:40.089Z,38.53
2022-10-14T06:21:08.762Z,37.07
2022-10-14T06:23:38.817Z,37.90
2022-10-14T06:26:09.211Z,36.00
2022-10-14T06:28:38.090Z,35.70
2022-10-14T06:31:08.610Z,38.60
2022-10-14T06:33:37.583Z,35.83
2022-10-14T06:36:07.514Z,35.03
2022-10-14T06:38:37.567Z,38.20
2022-10-14T06:41:06.218Z,36.13
2022-10-14T06:43:35.577Z,34.83
2022-10-14T06:46:05.991Z,35.67
2022-10-14T06:48:34.731Z,33.60
2022-10-14T06:51:04.087Z,34.60
2022-10-14T06:53:32.975Z,38.63
2022-10-14T06:56:05.279Z,35.23
2022-10-14T06:58:34.821Z,34.33
2022-10-14T07:01:04.532Z,36.50
2022-10-14T07:03:36.630Z,37.07
2022-10-14T07:06:06.138Z,35.70
2022-10-14T07:08:34.902Z,37.47
2022-10-14T07:11:05.576Z,35.87
2022-10-14T07:13:34.948Z,35.03
2022-10-14T07:16:03.599Z,36.10
2022-10-14T07:18:32.409Z,51.37
2022-10-14T07:21:04.391Z,35.80
2022-10-14T07:23:33.056Z,35.23
2022-10-14T07:26:02.601Z,34.47
2022-10-14T07:28:34.326Z,34.00
2022-10-14T07:31:07.301Z,32.93
2022-10-14T07:36:10.034Z,30.07
2022-10-14T07:38:39.235Z,29.60
2022-10-14T07:41:16.965Z,29.87
2022-10-14T07:43:48.802Z,28.70
2022-10-14T07:46:28.505Z,26.87
2022-10-14T07:49:09.433Z,28.87
2022-10-14T07:51:39.868Z,29.70
2022-10-14T07:54:10.863Z,25.80
2022-10-14T07:56:40.647Z,26.00
2022-10-14T07:59:13.952Z,26.50
2022-10-14T08:01:43.635Z,26.43
2022-10-14T08:04:13.838Z,26.07
2022-10-14T08:06:42.613Z,27.23
2022-10-14T08:09:13.615Z,24.30
2022-10-14T08:11:42.708Z,24.50
2022-10-14T08:14:14.159Z,25.53
2022-10-14T08:16:44.420Z,24.00
2022-10-14T08:19:14.910Z,75.53
2022-10-14T08:21:45.324Z,25.40
2022-10-14T08:24:14.168Z,24.17
2022-10-14T08:26:50.763Z,23.03
2022-10-14T08:29:22.749Z,23.13
2022-10-14T08:31:52.714Z,23.67
2022-10-14T08:34:22.080Z,22.60
2022-10-14T08:36:51.414Z,22.53
2022-10-14T08:39:20.510Z,20.38
2022-10-14T08:42:16.454Z,21.17
2022-10-14T08:44:51.705Z,20.80
2022-10-14T08:47:27.143Z,21.20
2022-10-14T08:50:14.369Z,22.50
2022-10-14T08:52:50.480Z,22.17
2022-10-14T08:55:31.631Z,21.50
2022-10-14T08:58:17.664Z,23.50
2022-10-14T09:01:11.203Z,21.60
2022-10-14T09:03:54.934Z,23.50
2022-10-14T09:06:31.416Z,24.87
2022-10-14T09:09:15.313Z,24.23
2022-10-14T09:11:47.476Z,24.10
2022-10-14T09:14:19.834Z,25.67
2022-10-14T09:16:58.417Z,23.90
2022-10-14T09:19:33.562Z,27.00
2022-10-14T09:22:03.260Z,24.60
2022-10-14T09:24:36.820Z,24.77
2022-10-14T09:27:08.008Z,24.30
2022-10-14T09:29:44.456Z,26.00
2022-10-14T09:32:21.594Z,26.63
2022-10-14T09:34:52.023Z,24.30
2022-10-14T09:37:27.757Z,23.60
2022-10-14T09:40:00.466Z,22.87
2022-10-14T09:42:42.367Z,21.70
2022-10-14T09:45:13.491Z,21.95
2022-10-14T09:47:49.528Z,20.65
2022-10-14T09:50:28.137Z,18.42
2022-10-14T09:53:03.152Z,18.83
2022-10-14T09:55:32.823Z,17.75
2022-10-14T09:58:07.843Z,18.38
2022-10-14T10:00:39.319Z,17.70
2022-10-14T10:03:27.704Z,17.63
2022-10-14T10:06:10.361Z,17.67
2022-10-14T10:08:41.557Z,16.85
2022-10-14T10:11:14.505Z,16.20
2022-10-14T10:13:47.084Z,16.50
2022-10-14T10:16:27.698Z,16.02
2022-10-14T10:19:01.821Z,15.65
2022-10-14T10:21:31.716Z,16.52
2022-10-14T10:24:02.409Z,17.42
2022-10-14T10:26:34.124Z,14.38
2022-10-14T10:29:05.087Z,15.10
2022-10-14T10:31:50.383Z,17.60
2022-10-14T10:35:06.678Z,16.40
2022-10-14T10:37:46.208Z,16.50
2022-10-14T10:40:38.127Z,15.60
2022-10-14T10:43:36.603Z,14.13
2022-10-14T10:46:19.391Z,14.43
2022-10-14T10:48:51.439Z,13.32
2022-10-14T10:51:40.464Z,15.63
2022-10-14T10:54:37.342Z,12.60
2022-10-14T10:57:11.952Z,13.77
2022-10-14T10:59:56.952Z,13.73
2022-10-14T11:02:56.360Z,12.55
2022-10-14T11:05:40.156Z,13.38
2022-10-14T11:08:35.040Z,13.77
2022-10-14T11:11:37.929Z,13.65
2022-10-14T11:14:20.660Z,14.38
2022-10-14T11:16:56.983Z,14.90
2022-10-14T11:19:33.681Z,15.10
2022-10-14T11:22:08.517Z,14.93
2022-10-14T11:24:44.743Z,14.60
2022-10-14T11:27:22.355Z,12.35
2022-10-14T11:30:17.204Z,14.65
2022-10-14T11:33:11.219Z,13.52
2022-10-14T11:35:52.550Z,13.10
2022-10-14T11:38:38.101Z,14.75
2022-10-14T11:41:13.510Z,14.27
2022-10-14T11:43:51.812Z,13.35
2022-10-14T11:46:22.926Z,14.93
2022-10-14T11:48:55.782Z,14.55
2022-10-14T11:51:33.301Z,15.47
2022-10-14T11:54:08.916Z,14.80
2022-10-14T11:56:44.073Z,14.82
2022-10-14T11:59:21.283Z,14.90
2022-10-14T12:01:53.589Z,13.10
2022-10-14T12:04:29.425Z,14.27
2022-10-14T12:07:05.513Z,14.20
2022-10-14T12:09:39.714Z,12.90
2022-10-14T12:12:13.208Z,16.33
2022-10-14T12:14:48.657Z,14.20
2022-10-14T12:17:22.491Z,14.60
2022-10-14T12:19:52.639Z,15.97
2022-10-14T12:22:25.067Z,13.87
2022-10-14T12:24:56.098Z,14.53
2022-10-14T12:27:28.753Z,14.20
2022-10-14T12:29:59.623Z,14.13
2022-10-14T12:32:30.372Z,15.57
2022-10-14T12:35:01.512Z,14.67
2022-10-14T12:37:52.338Z,14.40
2022-10-14T12:40:29.122Z,15.43
2022-10-14T12:43:03.134Z,15.70
2022-10-14T12:45:36.128Z,19.20
2022-10-14T12:48:10.640Z,15.07
2022-10-14T12:50:40.923Z,15.57
2022-10-14T12:53:25.298Z,15.00
2022-10-14T12:55:56.534Z,14.20
2022-10-14T12:58:29.609Z,15.20
2022-10-14T13:01:07.223Z,14.50
2022-10-14T13:03:45.136Z,14.30
2022-10-14T13:06:33.118Z,13.83
2022-10-14T13:09:36.334Z,13.77
2022-10-14T13:12:47.357Z,14.20
2022-10-14T13:15:49.752Z,14.37
2022-10-14T13:18:52.208Z,13.33
2022-10-14T13:21:53.005Z,13.90
2022-10-14T13:24:32.779Z,14.67
2022-10-14T13:27:12.842Z,12.17
2022-10-14T13:30:02.694Z,13.23
2022-10-14T13:32:43.736Z,13.47
2022-10-14T13:35:25.869Z,10.47
2022-10-14T13:38:02.499Z,10.60
2022-10-14T13:40:36.056Z,10.27
2022-10-14T13:43:09.984Z,11.43
2022-10-14T13:45:44.049Z,10.23
2022-10-14T13:48:17.203Z,10.47
2022-10-14T13:50:51.954Z,10.20
2022-10-14T13:53:23.349Z,12.23
2022-10-14T13:55:54.707Z,9.90
2022-10-14T13:58:25.165Z,10.00
2022-10-14T14:01:03.733Z,9.63
2022-10-14T14:03:35.666Z,10.60
2022-10-14T14:06:11.795Z,11.33
2022-10-14T14:08:49.176Z,11.13
2022-10-14T14:11:23.299Z,12.60
2022-10-14T14:14:01.247Z,10.77
2022-10-14T14:16:34.192Z,11.03
2022-10-14T14:19:08.859Z,9.23
2022-10-14T14:21:39.709Z,9.67
2022-10-14T14:24:19.423Z,8.70
2022-10-14T14:26:48.496Z,9.87
2022-10-14T14:29:19.635Z,9.80
2022-10-14T14:32:07.173Z,10.67
2022-10-14T14:37:55.235Z,8.97
2022-10-14T14:40:20.683Z,8.40
2022-10-14T14:42:52.823Z,7.33
2022-10-14T14:45:26.056Z,7.10
2022-10-14T14:47:58.284Z,7.57
2022-10-14T14:50:31.701Z,7.80
2022-10-14T14:53:05.442Z,7.80
2022-10-14T14:55:40.853Z,7.00
2022-10-14T14:58:22.585Z,7.50
2022-10-14T15:00:52.398Z,7.03
2022-10-14T15:03:22.061Z,7.53
2022-10-14T15:05:52.978Z,7.07
2022-10-14T15:08:29.152Z,6.87
2022-10-14T15:10:59.470Z,7.00
2022-10-14T15:13:50.410Z,6.80
2022-10-14T15:16:42.991Z,7.23
2022-10-14T15:19:16.200Z,7.40
2022-10-14T15:21:48.013Z,7.53
2022-10-14T15:24:20.060Z,6.90
2022-10-14T15:26:48.828Z,8.67
2022-10-14T15:32:11.771Z,6.30
2022-10-14T15:34:40.681Z,7.90
2022-10-14T15:37:14.070Z,7.20
2022-10-14T15:39:44.877Z,8.10
2022-10-14T15:42:14.220Z,10.67
2022-10-14T15:44:42.951Z,14.60
2022-10-14T15:47:22.594Z,10.80
2022-10-14T15:49:51.735Z,8.43
2022-10-14T15:52:23.027Z,7.50
2022-10-14T15:54:59.204Z,14.10
2022-10-14T15:57:28.021Z,8.87
2022-10-14T15:59:56.886Z,8.80
2022-10-14T16:02:33.806Z,8.77
2022-10-14T16:07:53.766Z,13.50
2022-10-14T16:10:40.643Z,11.27
2022-10-14T16:13:10.540Z,9.80
2022-10-14T16:15:45.417Z,10.90
2022-10-14T16:18:14.245Z,14.87
2022-10-14T16:20:43.280Z,16.30
2022-10-14T16:23:16.091Z,11.07
2022-10-14T16:25:50.462Z,21.27
2022-10-14T16:28:22.032Z,12.33
2022-10-14T16:30:51.368Z,11.50
2022-10-14T16:33:21.806Z,11.67
2022-10-14T16:35:52.703Z,11.90
2022-10-14T16:38:21.870Z,12.07
2022-10-14T16:40:57.691Z,11.90
2022-10-14T16:43:27.317Z,11.63
2022-10-14T16:46:00.193Z,16.30
2022-10-14T16:48:29.962Z,13.10
2022-10-14T16:50:58.776Z,12.17
2022-10-14T16:53:46.428Z,12.80
2022-10-14T16:56:36.862Z,15.30
2022-10-14T16:59:07.900Z,11.80
2022-10-14T17:01:36.879Z,10.70
2022-10-14T17:04:05.796Z,12.43
2022-10-14T17:06:34.616Z,14.40
2022-10-14T17:09:03.448Z,14.00
2022-10-14T17:11:34.729Z,13.43
2022-10-14T17:14:03.608Z,13.67
2022-10-14T17:16:32.457Z,13.30
2022-10-14T17:19:01.696Z,14.10
2022-10-14T17:21:30.694Z,14.27
2022-10-14T17:24:02.930Z,13.57
2022-10-14T17:26:34.571Z,14.10
2022-10-14T17:29:04.132Z,13.00
2022-10-14T17:31:33.178Z,12.53
2022-10-14T17:34:02.036Z,13.70
2022-10-14T17:36:32.124Z,13.60
2022-10-14T17:39:01.821Z,14.13
2022-10-14T17:41:32.593Z,12.80
2022-10-14T17:44:03.205Z,15.37
2022-10-14T17:46:33.344Z,14.17
2022-10-14T17:49:04.062Z,14.10
2022-10-14T17:51:33.693Z,13.77
2022-10-14T17:54:03.740Z,108.70
2022-10-14T17:56:36.130Z,17.03
2022-10-14T17:59:07.599Z,15.00
2022-10-14T18:01:37.882Z,16.80
2022-10-14T18:06:54.494Z,15.57
2022-10-14T18:09:23.580Z,15.47
2022-10-14T18:12:10.384Z,15.73
2022-10-14T18:14:42.110Z,18.67
2022-10-14T18:17:17.709Z,17.97
2022-10-14T18:19:54.529Z,16.13
2022-10-14T18:22:23.597Z,18.03
2022-10-14T18:24:58.264Z,18.20
2022-10-14T18:27:41.195Z,17.67
2022-10-14T18:30:19.610Z,19.60
2022-10-14T18:32:53.048Z,19.47
2022-10-14T18:35:29.666Z,20.90
2022-10-14T18:38:04.087Z,32.20
2022-10-14T18:40:44.578Z,17.97
2022-10-14T18:43:22.887Z,21.83
2022-10-14T18:45:55.790Z,23.27
2022-10-14T18:48:28.665Z,18.93
2022-10-14T18:51:06.501Z,23.47
2022-10-14T18:53:44.422Z,19.87
2022-10-14T18:56:19.341Z,19.70
2022-10-14T18:59:06.827Z,21.47
2022-10-14T19:01:45.127Z,22.17
2022-10-14T19:04:19.634Z,23.47
2022-10-14T19:07:07.128Z,22.13
2022-10-14T19:09:40.174Z,22.23
2022-10-14T19:12:33.459Z,22.30
2022-10-14T19:15:17.468Z,25.53
2022-10-14T19:17:54.496Z,23.27
2022-10-14T19:20:24.122Z,23.70
2022-10-14T19:22:59.549Z,23.03
2022-10-14T19:25:29.214Z,24.70
2022-10-14T19:27:58.552Z,25.50
2022-10-14T19:30:29.336Z,26.63
2022-10-14T19:32:58.857Z,23.90
2022-10-14T19:35:30.099Z,23.83
2022-10-14T19:37:59.820Z,25.20
2022-10-14T19:40:29.064Z,27.17
2022-10-14T19:43:00.806Z,24.87
2022-10-14T19:45:32.760Z,25.10
2022-10-14T19:48:02.486Z,27.60
2022-10-14T19:50:32.041Z,25.30
2022-10-14T19:53:01.053Z,26.43
2022-10-14T19:55:29.738Z,26.37
2022-10-14T19:57:58.406Z,27.10
2022-10-14T20:00:27.758Z,27.17
2022-10-14T20:02:58.393Z,25.10
2022-10-14T20:05:29.005Z,26.13
2022-10-14T20:07:57.661Z,25.60
2022-10-14T20:10:27.004Z,27.70
2022-10-14T20:12:56.171Z,24.00
2022-10-14T20:15:24.992Z,26.37
2022-10-14T20:17:53.998Z,25.50
2022-10-14T20:20:24.491Z,26.50
2022-10-14T20:22:53.313Z,24.60
2022-10-14T20:25:22.304Z,26.77
2022-10-14T20:27:51.564Z,26.00
2022-10-14T20:30:20.359Z,26.80
2022-10-14T20:32:49.162Z,26.23
2022-10-14T20:35:18.570Z,25.43
2022-10-14T20:37:48.841Z,28.27
2022-10-14T20:40:17.543Z,26.90
2022-10-14T20:42:46.426Z,28.30
2022-10-14T20:45:15.160Z,25.87
2022-10-14T20:47:44.515Z,26.67
2022-10-14T20:50:14.233Z,25.13
2022-10-14T20:52:43.231Z,28.13
2022-10-14T20:55:13.816Z,28.73
2022-10-14T20:57:42.760Z,25.20
2022-10-14T21:00:12.816Z,28.03
2022-10-14T21:05:15.261Z,29.00
2022-10-14T21:07:44.079Z,27.80
2022-10-14T21:10:14.265Z,29.23
2022-10-14T21:12:46.663Z,27.50
2022-10-14T21:15:17.789Z,27.13
2022-10-14T21:17:49.942Z,28.27
2022-10-14T21:20:19.403Z,27.60
2022-10-14T21:22:48.259Z,28.87
2022-10-14T21:25:18.715Z,29.50
2022-10-14T21:27:47.534Z,28.97
2022-10-14T21:30:16.452Z,29.20
2022-10-14T21:32:45.230Z,27.00
2022-10-14T21:35:14.031Z,27.67
2022-10-14T21:37:43.176Z,26.73
2022-10-14T21:40:12.916Z,25.63
2022-10-14T21:42:43.131Z,26.27
2022-10-14T21:45:12.360Z,26.67
2022-10-14T21:47:41.383Z,26.13
2022-10-14T21:50:10.954Z,25.90
2022-10-14T21:52:39.821Z,25.40
2022-10-14T21:55:09.495Z,24.07
2022-10-14T21:57:38.456Z,25.13
2022-10-14T22:00:12.140Z,24.63
2022-10-14T22:02:40.888Z,24.60
2022-10-14T22:05:10.121Z,25.10
2022-10-14T22:07:38.837Z,25.43
2022-10-14T22:10:28.389Z,26.23
2022-10-14T22:12:58.336Z,25.43
2022-10-14T22:15:28.414Z,25.67
2022-10-14T22:17:57.158Z,25.57
2022-10-14T22:20:25.837Z,23.17
2022-10-14T22:22:55.259Z,24.80
2022-10-14T22:25:24.012Z,26.40
2022-10-14T22:27:53.119Z,25.80
2022-10-14T22:30:21.816Z,24.90
2022-10-14T22:32:51.966Z,24.57
2022-10-14T22:35:20.675Z,24.73
2022-10-14T22:37:49.358Z,23.93
2022-10-14T22:40:18.409Z,23.57
2022-10-14T22:42:51.370Z,25.40
2022-10-14T22:45:20.402Z,26.47
2022-10-14T22:47:49.176Z,23.93
2022-10-14T22:50:19.468Z,26.97
2022-10-14T22:52:48.146Z,25.30
2022-10-14T22:55:16.990Z,27.83
2022-10-14T22:57:45.674Z,28.17
2022-10-14T23:00:15.996Z,28.00
2022-10-14T23:02:44.680Z,25.27
2022-10-14T23:05:13.417Z,29.17
2022-10-14T23:07:43.661Z,25.07
2022-10-14T23:10:12.301Z,26.77
2022-10-14T23:12:40.957Z,25.90
2022-10-14T23:15:10.862Z,24.97
2022-10-14T23:17:39.603Z,26.23
2022-10-14T23:20:09.636Z,26.53
2022-10-14T23:22:38.339Z,26.67
2022-10-14T23:25:09.324Z,26.97
2022-10-14T23:27:37.988Z,26.50
2022-10-14T23:30:08.037Z,25.20
2022-10-14T23:32:36.757Z,26.57
2022-10-14T23:35:05.926Z,25.43
2022-10-14T23:37:34.576Z,25.03
2022-10-14T23:40:04.963Z,26.17
2022-10-14T23:42:35.060Z,23.07
2022-10-14T23:45:03.800Z,26.57
2022-10-14T23:47:32.419Z,25.47
2022-10-14T23:50:01.102Z,24.63
2022-10-14T23:52:30.138Z,26.37
2022-10-14T23:54:59.220Z,25.10
2022-10-14T23:57:27.885Z,25.33
2022-10-14T23:59:58.026Z,27.30
